Time;durP1;ratioP1;P1;durP2;ratioP2;P2;SDS_P1;SDS_P2;PMS_P1;PMS_P2;Temp;Humidity;BMP_temperature;BMP_pressure;BME280_temperature;BME280_humidity;BME280_pressure;Samples;Min_cycle;Max_cycle;Signal;HPM_P1;HPM_P2
2023/01/25 00:05:59;;;;;;;8.9;4.7;;;;;;;1.3;90.7;100720;;;;
2023/01/25 00:15:58;;;;;;;6.9;3.6;;;;;;;1.2;91;100710;;;;
2023/01/25 00:26:58;;;;;;;6.9;3.6;;;;;;;1.3;91.1;100700;;;;
2023/01/25 00:37:58;;;;;;;6.9;3.6;;;;;;;1.3;90.8;100700;;;;
2023/01/25 00:47:58;;;;;;;5.6;2.5;;;;;;;1.4;90.6;100690;;;;
2023/01/25 00:58:58;;;;;;;5.6;2.5;;;;;;;1.5;90.4;100680;;;;
2023/01/25 01:09:59;;;;;;;5.6;2.5;;;;;;;1.6;90.2;100660;;;;
2023/01/25 01:19:58;;;;;;;6.6;3;;;;;;;1.7;89.7;100640;;;;
2023/01/25 01:29:58;;;;;;;6.6;3;;;;;;;1.7;89.2;100640;;;;
2023/01/25 01:40:58;;;;;;;6.6;3;;;;;;;1.7;88.8;100610;;;;
2023/01/25 01:50:58;;;;;;;5.7;2.9;;;;;;;1.7;88.6;100600;;;;
2023/01/25 02:01:58;;;;;;;5.7;2.9;;;;;;;1.5;88.4;100590;;;;
2023/01/25 02:12:59;;;;;;;5.7;2.9;;;;;;;1.5;88.8;100570;;;;
2023/01/25 02:23:58;;;;;;;6.8;3;;;;;;;1.6;88.7;100570;;;;
2023/01/25 02:33:58;;;;;;;6.8;3;;;;;;;1.6;88.6;100580;;;;
2023/01/25 02:44:58;;;;;;;7.2;3.7;;;;;;;1.8;88.7;100580;;;;
2023/01/25 02:55:58;;;;;;;7.2;3.7;;;;;;;1.9;88.5;100570;;;;
2023/01/25 03:05:59;;;;;;;7.2;3.7;;;;;;;1.9;88;100570;;;;
2023/01/25 03:15:59;;;;;;;8.6;4.2;;;;;;;1.9;87.9;100570;;;;
2023/01/25 03:27:16;;;;;;;8.6;4.2;;;;;;;2;87.9;100570;;;;
2023/01/25 03:37:59;;;;;;;8.6;4.2;;;;;;;1.9;88;100570;;;;
2023/01/25 03:47:58;;;;;;;9.7;4.3;;;;;;;1.9;88.2;100560;;;;
2023/01/25 03:57:58;;;;;;;9.7;4.3;;;;;;;1.8;88.3;100550;;;;
2023/01/25 04:08:58;;;;;;;9.7;4.3;;;;;;;2;88.4;100550;;;;
2023/01/25 04:18:59;;;;;;;12.1;6.3;;;;;;;2;88.4;100540;;;;
2023/01/25 04:28:58;;;;;;;12.1;6.3;;;;;;;2;88.4;100530;;;;
2023/01/25 04:39:58;;;;;;;12.1;6.3;;;;;;;2.1;88.4;100510;;;;
2023/01/25 04:50:58;;;;;;;17.1;9.5;;;;;;;2.1;88.1;100510;;;;
2023/01/25 05:00:59;;;;;;;17.1;9.5;;;;;;;1.9;87.9;100510;;;;
2023/01/25 05:11:58;;;;;;;17.1;9.5;;;;;;;1.9;88.3;100510;;;;
2023/01/25 05:22:59;;;;;;;9.4;5.2;;;;;;;1.9;88.6;100510;;;;
2023/01/25 05:32:58;;;;;;;9.4;5.2;;;;;;;2;88.7;100500;;;;
2023/01/25 05:42:58;;;;;;;9.4;5.2;;;;;;;2;88.7;100500;;;;
2023/01/25 05:53:58;;;;;;;12.5;6.6;;;;;;;2.1;88.5;100490;;;;
2023/01/25 06:03:58;;;;;;;12.5;6.6;;;;;;;2.1;88.4;100490;;;;
2023/01/25 06:13:59;;;;;;;12.5;6.6;;;;;;;2.1;88.3;100490;;;;
2023/01/25 06:24:58;;;;;;;12;6.2;;;;;;;2;88.2;100500;;;;
2023/01/25 06:34:58;;;;;;;12;6.2;;;;;;;2;88.1;100490;;;;
2023/01/25 06:44:59;;;;;;;9.2;5.5;;;;;;;2.1;88.3;100480;;;;
2023/01/25 06:54:58;;;;;;;9.2;5.5;;;;;;;2;88.1;100470;;;;
2023/01/25 07:04:58;;;;;;;9.2;5.5;;;;;;;2;88.2;100460;;;;
2023/01/25 07:14:58;;;;;;;11.7;6;;;;;;;1.9;88.2;100460;;;;
2023/01/25 07:25:59;;;;;;;11.7;6;;;;;;;2.1;88.2;100460;;;;
2023/01/25 07:35:59;;;;;;;11.7;6;;;;;;;2.3;88.2;100450;;;;
2023/01/25 07:45:59;;;;;;;13.8;7;;;;;;;2.5;88;100450;;;;
2023/01/25 07:56:59;;;;;;;13.8;7;;;;;;;2.5;87.2;100430;;;;
2023/01/25 08:07:59;;;;;;;13.8;7;;;;;;;2.7;87.3;100430;;;;
2023/01/25 08:17:58;;;;;;;11.6;7.8;;;;;;;3;87;100420;;;;
2023/01/25 08:28:59;;;;;;;11.6;7.8;;;;;;;3.1;85.7;100410;;;;
2023/01/25 08:39:59;;;;;;;11.6;7.8;;;;;;;3.2;85.3;100400;;;;
2023/01/25 08:49:59;;;;;;;10;5.7;;;;;;;3.1;84.6;100410;;;;
2023/01/25 08:59:59;;;;;;;10;5.7;;;;;;;3.1;84.2;100400;;;;
2023/01/25 09:09:59;;;;;;;10;5.7;;;;;;;3.1;84.3;100400;;;;
2023/01/25 09:20:59;;;;;;;10.2;5.5;;;;;;;3.4;84.4;100390;;;;
2023/01/25 09:31:59;;;;;;;10.2;5.5;;;;;;;3.5;84.1;100380;;;;
2023/01/25 09:41:58;;;;;;;10.2;5.5;;;;;;;3.8;83.9;100360;;;;
2023/01/25 09:52:59;;;;;;;28.8;16.3;;;;;;;4;83.2;100340;;;;
2023/01/25 10:03:58;;;;;;;28.8;16.3;;;;;;;4.3;82.9;100320;;;;
2023/01/25 10:13:59;;;;;;;25.5;18.9;;;;;;;4.4;81.2;100300;;;;
2023/01/25 10:24:59;;;;;;;25.5;18.9;;;;;;;4.3;81;100280;;;;
2023/01/25 10:35:59;;;;;;;25.5;18.9;;;;;;;4.4;80.7;100270;;;;
2023/01/25 10:45:58;;;;;;;9.6;6.1;;;;;;;4.5;80.2;100250;;;;
2023/01/25 10:56:59;;;;;;;9.6;6.1;;;;;;;4.6;79.5;100250;;;;
2023/01/25 11:06:59;;;;;;;9.6;6.1;;;;;;;4.3;79.6;100240;;;;
2023/01/25 11:17:59;;;;;;;10.6;7;;;;;;;4.4;79.2;100220;;;;
2023/01/25 11:27:58;;;;;;;10.6;7;;;;;;;4.4;77.6;100210;;;;
2023/01/25 11:37:59;;;;;;;10.6;7;;;;;;;4.5;78.2;100190;;;;
2023/01/25 11:47:59;;;;;;;7.5;4.7;;;;;;;4.3;75.6;100170;;;;
2023/01/25 11:58:59;;;;;;;7.5;4.7;;;;;;;4.1;75.1;100150;;;;
2023/01/25 12:08:58;;;;;;;7.5;4.7;;;;;;;3.8;76.6;100140;;;;
2023/01/25 12:18:59;;;;;;;11;7.2;;;;;;;3.9;76.4;100130;;;;
2023/01/25 12:29:59;;;;;;;11;7.2;;;;;;;3.6;76;100110;;;;
2023/01/25 12:40:59;;;;;;;11;7.2;;;;;;;3.2;75.5;100100;;;;
2023/01/25 12:51:59;;;;;;;5.3;3.3;;;;;;;3.4;75.4;100090;;;;
2023/01/25 13:01:59;;;;;;;5.3;3.3;;;;;;;3.5;75;100080;;;;
2023/01/25 13:12:59;;;;;;;5.3;3.3;;;;;;;3.4;75.7;100070;;;;
2023/01/25 13:23:59;;;;;;;8.5;4.8;;;;;;;3.4;75.4;100060;;;;
2023/01/25 13:33:59;;;;;;;8.5;4.8;;;;;;;3.3;76.1;100060;;;;
2023/01/25 13:43:59;;;;;;;5.9;2.6;;;;;;;3;76;100040;;;;
2023/01/25 13:53:59;;;;;;;5.9;2.6;;;;;;;2.8;76.1;100030;;;;
2023/01/25 14:04:59;;;;;;;5.9;2.6;;;;;;;2.7;76.8;100030;;;;
2023/01/25 14:14:59;;;;;;;5.4;2.9;;;;;;;2.6;78.1;100010;;;;
2023/01/25 14:26:00;;;;;;;5.4;2.9;;;;;;;2.5;78.5;100000;;;;
2023/01/25 14:35:59;;;;;;;5.4;2.9;;;;;;;2.5;78.1;99990;;;;
2023/01/25 14:45:59;;;;;;;5.7;3;;;;;;;2.4;78.3;99990;;;;
2023/01/25 14:56:59;;;;;;;5.7;3;;;;;;;2.2;79.1;99980;;;;
2023/01/25 15:06:59;;;;;;;5.7;3;;;;;;;2.2;79.7;99980;;;;
2023/01/25 15:17:59;;;;;;;17.1;11.9;;;;;;;2.1;80.2;99970;;;;
2023/01/25 15:27:59;;;;;;;17.1;11.9;;;;;;;2;80.4;99960;;;;
2023/01/25 15:38:59;;;;;;;17.1;11.9;;;;;;;2;79.9;99950;;;;
2023/01/25 15:49:59;;;;;;;25.9;15.6;;;;;;;2;80.3;99940;;;;
2023/01/25 15:59:59;;;;;;;25.9;15.6;;;;;;;2;80.5;99930;;;;
2023/01/25 16:09:59;;;;;;;25.9;15.6;;;;;;;1.9;80.9;99930;;;;
2023/01/25 16:20:59;;;;;;;15.4;8.5;;;;;;;1.7;80.4;99920;;;;
2023/01/25 16:31:59;;;;;;;15.4;8.5;;;;;;;1.6;80.5;99910;;;;
2023/01/25 16:41:59;;;;;;;15.4;8.5;;;;;;;1.7;80.3;99890;;;;
2023/01/25 16:52:59;;;;;;;9.5;5.4;;;;;;;1.7;80.5;99880;;;;
2023/01/25 17:03:59;;;;;;;9.5;5.4;;;;;;;1.5;80.4;99870;;;;
2023/01/25 17:13:59;;;;;;;11.3;6.3;;;;;;;1.4;80.2;99850;;;;
2023/01/25 17:24:59;;;;;;;11.3;6.3;;;;;;;1.5;80;99850;;;;
2023/01/25 17:35:59;;;;;;;11.3;6.3;;;;;;;1.3;80.6;99830;;;;
2023/01/25 17:45:59;;;;;;;13.8;7;;;;;;;1.4;80.9;99830;;;;
2023/01/25 17:55:59;;;;;;;;;;;;;;;;;;;;;
2023/01/25 18:05:59;;;;;;;13.8;7;;;;;;;1.4;80.4;99810;;;;
2023/01/25 18:17:01;;;;;;;11.1;7.1;;;;;;;1.3;80.4;99800;;;;
2023/01/25 18:27:59;;;;;;;11.1;7.1;;;;;;;1.3;80.4;99790;;;;
2023/01/25 18:37:59;;;;;;;11.1;7.1;;;;;;;1.2;80.8;99770;;;;
2023/01/25 18:48:59;;;;;;;14.6;9.2;;;;;;;1.1;81.6;99760;;;;
2023/01/25 18:59:59;;;;;;;14.6;9.2;;;;;;;1.1;81.9;99760;;;;
2023/01/25 19:09:59;;;;;;;14.6;9.2;;;;;;;1.2;81.8;99740;;;;
2023/01/25 19:20:01;;;;;;;19.1;11.5;;;;;;;1.2;82;99730;;;;
2023/01/25 19:29:59;;;;;;;19.1;11.5;;;;;;;1.1;82.6;99720;;;;
2023/01/25 19:40:59;;;;;;;19.1;11.5;;;;;;;1.1;82.8;99710;;;;
2023/01/25 19:51:59;;;;;;;19;10.6;;;;;;;1.1;83.1;99700;;;;
2023/01/25 20:02:59;;;;;;;19;10.6;;;;;;;0.9;83.6;99690;;;;
2023/01/25 20:13:59;;;;;;;20.6;12;;;;;;;1.1;83.6;99680;;;;
2023/01/25 20:25:00;;;;;;;20.6;12;;;;;;;1.1;83.8;99680;;;;
2023/01/25 20:35:02;;;;;;;20.6;12;;;;;;;1.2;83.9;99670;;;;
2023/01/25 20:44:59;;;;;;;20.2;10.7;;;;;;;1.2;83.2;99670;;;;
2023/01/25 20:54:59;;;;;;;20.2;10.7;;;;;;;1.1;83.5;99650;;;;
2023/01/25 21:05:59;;;;;;;20.2;10.7;;;;;;;1.1;83.2;99650;;;;
2023/01/25 21:15:59;;;;;;;17.7;10.3;;;;;;;1;83.4;99650;;;;
2023/01/25 21:26:59;;;;;;;17.7;10.3;;;;;;;1.1;83.1;99630;;;;
2023/01/25 21:37:59;;;;;;;17.7;10.3;;;;;;;0.9;83.4;99630;;;;
2023/01/25 21:47:59;;;;;;;18.4;9.1;;;;;;;1;83.3;99620;;;;
2023/01/25 21:57:59;;;;;;;18.4;9.1;;;;;;;1;83.3;99620;;;;
2023/01/25 22:08:59;;;;;;;18.4;9.1;;;;;;;1;83.6;99600;;;;
2023/01/25 22:18:59;;;;;;;20.2;11.4;;;;;;;1.1;83.7;99590;;;;
2023/01/25 22:29:59;;;;;;;20.2;11.4;;;;;;;1.1;83.7;99580;;;;
2023/01/25 22:39:59;;;;;;;20.2;11.4;;;;;;;1;82.9;99570;;;;
2023/01/25 22:50:59;;;;;;;18.2;10.3;;;;;;;1.1;82.4;99560;;;;
2023/01/25 23:00:59;;;;;;;18.2;10.3;;;;;;;1.1;82;99550;;;;
2023/01/25 23:10:59;;;;;;;18.2;10.3;;;;;;;1.1;82.4;99540;;;;
2023/01/25 23:21:59;;;;;;;18.5;10.6;;;;;;;1.1;82.2;99530;;;;
2023/01/25 23:31:59;;;;;;;18.5;10.6;;;;;;;1;82;99520;;;;
2023/01/25 23:42:59;;;;;;;19.4;12.5;;;;;;;1;82.1;99510;;;;
2023/01/25 23:53:59;;;;;;;19.4;12.5;;;;;;;1;81.5;99500;;;;
